Etusivu
METAR-TAF:

METAR-TAF

Lentoasemat :

Nouméa-Magentan lentoasema

Nouméa, Uusi-Kaledonia

Leveyspiiri: 22-15-30S, Pituuspiiri: 166-28-22E, korkeus merenpinnasta: 3 m

METAR: puuttuu

Aika: 08:22 (21:22 UTC)

Sääennuste

Tämä raportti tehtiin 4 tuntia ja 22 minuuttia sitten, kello 17.00 UTC
Ennuste voimassa 14. päivästä klo 18 UTC - 15. päivään klo 18 UTC
Tuuli 8 kn idästä/koillisesta
Näkyvyys 10 km tai enemmän
Muutamia pilviä 3000 ft:n korkeudessa
Tulossa
14. päivästä klo 22 UTC - 14. päivään klo 24 UTC
Tuuli 18 kn kaakosta
Todennäköisyys 30% :
Ajoittain
15. päivästä klo 02 UTC - 15. päivään klo 10 UTC
Näkyvyys: 4000 m
Muutamia pilviä 2000 ft:n korkeudessa, Kasvava cumulus-pilvi.
vesikuuroja
Tulossa
15. päivästä klo 08 UTC - 15. päivään klo 10 UTC
Tuuli 8 kn idästä/koillisesta

TAF: NWWM 141700Z 1418/1518 07008KT 9999 FEW030 BECMG 1422/1424 13018KT PROB30 TEMPO 1502/1510 4000 SHRA FEW020TCU BECMG 1508/1510 07008KT

Säähavainnot ja -ennusteet yli 4000 lentoasemalta (METAR- ja TAF-raportit).

Käytössä olevat sääasemat on merkitty karttaan keltaisilla ja punaisilla pisteillä.

Aseta hiiri pisteen päälle nähdäksesi sääaseman nimen.

Klikkaa sitten nähdäksesi säähavainnot ja -ennusteet.

Kartan vaihtaminen: klikkaa mustalla rastilla varustettuja vihreitä pisteitä, niin voit zoomata sisään; viivalla varustettua vihreää pistettä, niin voit zoomata ulos tai vihreitä nuolia, niin pääset viereisille kartoille.


METAR-TAF: